sensor_id;sensor_type;location;lat;lon;timestamp;temperature;humidity
18581;DHT22;9420;50.876;7.012;2023-02-28T00:01:27;0.10;99.90
18581;DHT22;9420;50.876;7.012;2023-02-28T00:03:56;0.10;99.90
18581;DHT22;9420;50.876;7.012;2023-02-28T00:06:23;0.00;99.90
18581;DHT22;9420;50.876;7.012;2023-02-28T00:08:51;0.10;99.90
18581;DHT22;9420;50.876;7.012;2023-02-28T00:11:18;0.00;99.90
18581;DHT22;9420;50.876;7.012;2023-02-28T00:13:46;0.00;99.90
18581;DHT22;9420;50.876;7.012;2023-02-28T00:16:16;0.00;99.90
18581;DHT22;9420;50.876;7.012;2023-02-28T00:18:45;-0.10;99.90
18581;DHT22;9420;50.876;7.012;2023-02-28T00:21:16;0.00;99.90
18581;DHT22;9420;50.876;7.012;2023-02-28T00:23:44;0.00;99.90
18581;DHT22;9420;50.876;7.012;2023-02-28T00:26:11;-0.10;99.90
18581;DHT22;9420;50.876;7.012;2023-02-28T00:28:38;-0.10;99.90
18581;DHT22;9420;50.876;7.012;2023-02-28T00:31:06;-0.10;99.90
18581;DHT22;9420;50.876;7.012;2023-02-28T00:33:33;-0.10;99.90
18581;DHT22;9420;50.876;7.012;2023-02-28T00:36:05;-0.10;99.90
18581;DHT22;9420;50.876;7.012;2023-02-28T00:38:36;-0.10;99.90
18581;DHT22;9420;50.876;7.012;2023-02-28T00:41:08;-0.20;99.90
18581;DHT22;9420;50.876;7.012;2023-02-28T00:43:41;-0.20;99.90
18581;DHT22;9420;50.876;7.012;2023-02-28T00:46:11;-0.20;99.90
18581;DHT22;9420;50.876;7.012;2023-02-28T00:48:41;-0.20;99.90
18581;DHT22;9420;50.876;7.012;2023-02-28T00:51:11;-0.10;99.90
18581;DHT22;9420;50.876;7.012;2023-02-28T00:53:50;-0.20;99.90
18581;DHT22;9420;50.876;7.012;2023-02-28T00:56:23;-0.10;99.90
18581;DHT22;9420;50.876;7.012;2023-02-28T00:58:56;-0.10;99.90
18581;DHT22;9420;50.876;7.012;2023-02-28T01:01:29;-0.10;99.90
18581;DHT22;9420;50.876;7.012;2023-02-28T01:04:12;-0.10;99.90
18581;DHT22;9420;50.876;7.012;2023-02-28T01:06:42;-0.10;99.90
18581;DHT22;9420;50.876;7.012;2023-02-28T01:09:13;-0.10;99.90
18581;DHT22;9420;50.876;7.012;2023-02-28T01:11:42;-0.10;99.90
18581;DHT22;9420;50.876;7.012;2023-02-28T01:14:15;-0.10;99.90
18581;DHT22;9420;50.876;7.012;2023-02-28T01:16:43;-0.10;99.90
18581;DHT22;9420;50.876;7.012;2023-02-28T01:19:10;-0.10;99.90
18581;DHT22;9420;50.876;7.012;2023-02-28T01:21:38;-0.10;99.90
18581;DHT22;9420;50.876;7.012;2023-02-28T01:24:05;-0.10;99.90
18581;DHT22;9420;50.876;7.012;2023-02-28T01:26:34;-0.10;99.90
18581;DHT22;9420;50.876;7.012;2023-02-28T01:29:02;-0.10;99.90
18581;DHT22;9420;50.876;7.012;2023-02-28T01:31:29;-0.20;99.90
18581;DHT22;9420;50.876;7.012;2023-02-28T01:33:56;-0.20;99.90
18581;DHT22;9420;50.876;7.012;2023-02-28T01:36:24;-0.30;99.90
18581;DHT22;9420;50.876;7.012;2023-02-28T01:38:51;-0.40;99.90
18581;DHT22;9420;50.876;7.012;2023-02-28T01:41:21;-0.40;99.90
18581;DHT22;9420;50.876;7.012;2023-02-28T01:43:56;-0.40;99.90
18581;DHT22;9420;50.876;7.012;2023-02-28T01:46:30;-0.40;99.90
18581;DHT22;9420;50.876;7.012;2023-02-28T01:49:02;-0.50;99.90
18581;DHT22;9420;50.876;7.012;2023-02-28T01:51:37;-0.60;99.90
18581;DHT22;9420;50.876;7.012;2023-02-28T01:54:14;-0.60;99.90
18581;DHT22;9420;50.876;7.012;2023-02-28T01:56:45;-0.60;99.90
18581;DHT22;9420;50.876;7.012;2023-02-28T01:59:23;-0.60;99.90
18581;DHT22;9420;50.876;7.012;2023-02-28T02:01:56;-0.60;99.90
18581;DHT22;9420;50.876;7.012;2023-02-28T02:04:25;-0.60;99.90
18581;DHT22;9420;50.876;7.012;2023-02-28T02:06:59;-0.60;99.90
18581;DHT22;9420;50.876;7.012;2023-02-28T02:09:26;-0.60;99.90
18581;DHT22;9420;50.876;7.012;2023-02-28T02:11:55;-0.60;99.90
18581;DHT22;9420;50.876;7.012;2023-02-28T02:14:49;-0.50;99.90
18581;DHT22;9420;50.876;7.012;2023-02-28T02:17:32;-0.50;99.90
18581;DHT22;9420;50.876;7.012;2023-02-28T02:23:53;-0.50;99.90
18581;DHT22;9420;50.876;7.012;2023-02-28T02:26:52;-0.60;99.90
18581;DHT22;9420;50.876;7.012;2023-02-28T02:30:08;-0.60;99.90
18581;DHT22;9420;50.876;7.012;2023-02-28T02:33:10;-0.70;99.90
18581;DHT22;9420;50.876;7.012;2023-02-28T02:35:56;-0.80;99.90
18581;DHT22;9420;50.876;7.012;2023-02-28T02:38:33;-0.80;99.90
18581;DHT22;9420;50.876;7.012;2023-02-28T02:41:08;-0.70;99.90
18581;DHT22;9420;50.876;7.012;2023-02-28T02:43:46;-0.70;99.90
18581;DHT22;9420;50.876;7.012;2023-02-28T02:46:20;-0.70;99.90
18581;DHT22;9420;50.876;7.012;2023-02-28T02:48:51;-0.70;99.90
18581;DHT22;9420;50.876;7.012;2023-02-28T02:51:24;-0.80;99.90
18581;DHT22;9420;50.876;7.012;2023-02-28T02:53:56;-0.80;99.90
18581;DHT22;9420;50.876;7.012;2023-02-28T02:56:29;-0.80;99.90
18581;DHT22;9420;50.876;7.012;2023-02-28T02:59:02;-0.80;99.90
18581;DHT22;9420;50.876;7.012;2023-02-28T03:01:35;-0.80;99.90
18581;DHT22;9420;50.876;7.012;2023-02-28T03:04:09;-0.80;99.90
18581;DHT22;9420;50.876;7.012;2023-02-28T03:06:43;-0.80;99.90
18581;DHT22;9420;50.876;7.012;2023-02-28T03:09:10;-0.80;99.90
18581;DHT22;9420;50.876;7.012;2023-02-28T03:11:37;-0.70;99.90
18581;DHT22;9420;50.876;7.012;2023-02-28T03:17:52;-0.80;99.90
18581;DHT22;9420;50.876;7.012;2023-02-28T03:20:37;-0.80;99.90
18581;DHT22;9420;50.876;7.012;2023-02-28T03:23:17;-0.80;99.90
18581;DHT22;9420;50.876;7.012;2023-02-28T03:25:56;-0.80;99.90
18581;DHT22;9420;50.876;7.012;2023-02-28T03:28:31;-0.80;99.90
18581;DHT22;9420;50.876;7.012;2023-02-28T03:31:12;-0.80;99.90
18581;DHT22;9420;50.876;7.012;2023-02-28T03:33:46;-0.80;99.90
18581;DHT22;9420;50.876;7.012;2023-02-28T03:36:22;-0.80;99.90
18581;DHT22;9420;50.876;7.012;2023-02-28T03:38:58;-0.90;99.90
18581;DHT22;9420;50.876;7.012;2023-02-28T03:41:32;-1.00;99.90
18581;DHT22;9420;50.876;7.012;2023-02-28T03:44:07;-1.00;99.90
18581;DHT22;9420;50.876;7.012;2023-02-28T03:46:44;-1.00;99.90
18581;DHT22;9420;50.876;7.012;2023-02-28T03:49:17;-1.20;99.90
18581;DHT22;9420;50.876;7.012;2023-02-28T03:51:49;-1.20;99.90
18581;DHT22;9420;50.876;7.012;2023-02-28T03:54:24;-1.20;99.90
18581;DHT22;9420;50.876;7.012;2023-02-28T03:57:00;-1.30;99.90
18581;DHT22;9420;50.876;7.012;2023-02-28T03:59:37;-1.30;99.90
18581;DHT22;9420;50.876;7.012;2023-02-28T04:02:08;-1.40;99.90
18581;DHT22;9420;50.876;7.012;2023-02-28T04:04:35;-1.40;99.90
18581;DHT22;9420;50.876;7.012;2023-02-28T04:07:07;-1.50;99.90
18581;DHT22;9420;50.876;7.012;2023-02-28T04:09:36;-1.50;99.90
18581;DHT22;9420;50.876;7.012;2023-02-28T04:12:05;-1.60;99.90
18581;DHT22;9420;50.876;7.012;2023-02-28T04:14:32;-1.60;99.90
18581;DHT22;9420;50.876;7.012;2023-02-28T04:16:59;-1.60;99.90
18581;DHT22;9420;50.876;7.012;2023-02-28T04:19:26;-1.60;99.90
18581;DHT22;9420;50.876;7.012;2023-02-28T04:21:54;-1.70;99.90
18581;DHT22;9420;50.876;7.012;2023-02-28T04:24:23;-1.80;99.90
18581;DHT22;9420;50.876;7.012;2023-02-28T04:26:55;-1.80;99.90
18581;DHT22;9420;50.876;7.012;2023-02-28T04:29:25;-1.80;99.90
18581;DHT22;9420;50.876;7.012;2023-02-28T04:31:54;-1.80;99.90
18581;DHT22;9420;50.876;7.012;2023-02-28T04:34:23;-1.90;99.90
18581;DHT22;9420;50.876;7.012;2023-02-28T04:36:51;-1.90;99.90
18581;DHT22;9420;50.876;7.012;2023-02-28T04:39:20;-1.80;99.90
18581;DHT22;9420;50.876;7.012;2023-02-28T04:41:48;-1.80;99.90
18581;DHT22;9420;50.876;7.012;2023-02-28T04:44:17;-1.90;99.90
18581;DHT22;9420;50.876;7.012;2023-02-28T04:46:44;-1.90;99.90
18581;DHT22;9420;50.876;7.012;2023-02-28T04:49:12;-1.90;99.90
18581;DHT22;9420;50.876;7.012;2023-02-28T04:51:39;-1.90;99.90
18581;DHT22;9420;50.876;7.012;2023-02-28T04:54:07;-1.80;99.90
18581;DHT22;9420;50.876;7.012;2023-02-28T04:56:35;-1.70;99.90
18581;DHT22;9420;50.876;7.012;2023-02-28T04:59:02;-1.60;99.90
18581;DHT22;9420;50.876;7.012;2023-02-28T05:01:32;-1.50;99.90
18581;DHT22;9420;50.876;7.012;2023-02-28T05:04:03;-1.50;99.90
18581;DHT22;9420;50.876;7.012;2023-02-28T05:06:32;-1.40;99.90
18581;DHT22;9420;50.876;7.012;2023-02-28T05:09:00;-1.50;99.90
18581;DHT22;9420;50.876;7.012;2023-02-28T05:11:29;-1.40;99.90
18581;DHT22;9420;50.876;7.012;2023-02-28T05:14:00;-1.40;99.90
18581;DHT22;9420;50.876;7.012;2023-02-28T05:16:28;-1.30;99.90
18581;DHT22;9420;50.876;7.012;2023-02-28T05:18:57;-1.30;99.90
18581;DHT22;9420;50.876;7.012;2023-02-28T05:21:27;-1.30;99.90
18581;DHT22;9420;50.876;7.012;2023-02-28T05:23:57;-1.20;99.90
18581;DHT22;9420;50.876;7.012;2023-02-28T05:26:26;-1.20;99.90
18581;DHT22;9420;50.876;7.012;2023-02-28T05:28:54;-1.20;99.90
18581;DHT22;9420;50.876;7.012;2023-02-28T05:31:22;-1.20;99.90
18581;DHT22;9420;50.876;7.012;2023-02-28T05:33:49;-1.20;99.90
18581;DHT22;9420;50.876;7.012;2023-02-28T05:36:18;-1.20;99.90
18581;DHT22;9420;50.876;7.012;2023-02-28T05:38:46;-1.20;99.90
18581;DHT22;9420;50.876;7.012;2023-02-28T05:41:14;-1.20;99.90
18581;DHT22;9420;50.876;7.012;2023-02-28T05:43:41;-1.20;99.90
18581;DHT22;9420;50.876;7.012;2023-02-28T05:46:10;-1.20;99.90
18581;DHT22;9420;50.876;7.012;2023-02-28T05:48:41;-1.20;99.90
18581;DHT22;9420;50.876;7.012;2023-02-28T05:51:09;-1.10;99.90
18581;DHT22;9420;50.876;7.012;2023-02-28T05:53:37;-1.10;99.90
18581;DHT22;9420;50.876;7.012;2023-02-28T05:56:05;-1.10;99.90
18581;DHT22;9420;50.876;7.012;2023-02-28T05:58:32;-1.10;99.90
18581;DHT22;9420;50.876;7.012;2023-02-28T06:01:18;-1.10;99.90
18581;DHT22;9420;50.876;7.012;2023-02-28T06:03:46;-1.00;99.90
18581;DHT22;9420;50.876;7.012;2023-02-28T06:06:13;-1.00;99.90
18581;DHT22;9420;50.876;7.012;2023-02-28T06:08:41;-0.90;99.90
18581;DHT22;9420;50.876;7.012;2023-02-28T06:11:10;-1.00;99.90
18581;DHT22;9420;50.876;7.012;2023-02-28T06:13:37;-1.00;99.90
18581;DHT22;9420;50.876;7.012;2023-02-28T06:16:04;-1.00;99.90
18581;DHT22;9420;50.876;7.012;2023-02-28T06:18:31;-1.00;99.90
18581;DHT22;9420;50.876;7.012;2023-02-28T06:20:59;-1.00;99.90
18581;DHT22;9420;50.876;7.012;2023-02-28T06:23:26;-1.00;99.90
18581;DHT22;9420;50.876;7.012;2023-02-28T06:25:54;-1.00;99.90
18581;DHT22;9420;50.876;7.012;2023-02-28T06:28:24;-1.00;99.90
18581;DHT22;9420;50.876;7.012;2023-02-28T06:30:51;-1.00;99.90
18581;DHT22;9420;50.876;7.012;2023-02-28T06:33:18;-1.00;99.90
18581;DHT22;9420;50.876;7.012;2023-02-28T06:35:46;-1.00;99.90
18581;DHT22;9420;50.876;7.012;2023-02-28T06:38:16;-1.10;99.90
18581;DHT22;9420;50.876;7.012;2023-02-28T06:40:43;-1.10;99.90
18581;DHT22;9420;50.876;7.012;2023-02-28T06:43:12;-1.10;99.90
18581;DHT22;9420;50.876;7.012;2023-02-28T06:45:42;-1.10;99.90
18581;DHT22;9420;50.876;7.012;2023-02-28T06:48:10;-1.10;99.90
18581;DHT22;9420;50.876;7.012;2023-02-28T06:50:37;-1.00;99.90
18581;DHT22;9420;50.876;7.012;2023-02-28T06:53:04;-1.00;99.90
18581;DHT22;9420;50.876;7.012;2023-02-28T06:55:32;-0.90;99.90
18581;DHT22;9420;50.876;7.012;2023-02-28T06:57:59;-0.90;99.90
18581;DHT22;9420;50.876;7.012;2023-02-28T07:00:27;-0.90;99.90
18581;DHT22;9420;50.876;7.012;2023-02-28T07:02:54;-0.90;99.90
18581;DHT22;9420;50.876;7.012;2023-02-28T07:05:21;-0.80;99.90
18581;DHT22;9420;50.876;7.012;2023-02-28T07:07:48;-0.80;99.90
18581;DHT22;9420;50.876;7.012;2023-02-28T07:10:18;-0.80;99.90
18581;DHT22;9420;50.876;7.012;2023-02-28T07:12:45;-0.80;99.90
18581;DHT22;9420;50.876;7.012;2023-02-28T07:15:13;-0.70;99.90
18581;DHT22;9420;50.876;7.012;2023-02-28T07:17:41;-0.70;99.90
18581;DHT22;9420;50.876;7.012;2023-02-28T07:20:09;-0.60;99.90
18581;DHT22;9420;50.876;7.012;2023-02-28T07:22:37;-0.60;99.90
18581;DHT22;9420;50.876;7.012;2023-02-28T07:25:05;-0.50;99.90
18581;DHT22;9420;50.876;7.012;2023-02-28T07:27:33;-0.50;99.90
18581;DHT22;9420;50.876;7.012;2023-02-28T07:30:00;-0.40;99.90
18581;DHT22;9420;50.876;7.012;2023-02-28T07:32:29;-0.40;99.90
18581;DHT22;9420;50.876;7.012;2023-02-28T07:34:57;-0.30;99.90
18581;DHT22;9420;50.876;7.012;2023-02-28T07:37:24;-0.20;99.90
18581;DHT22;9420;50.876;7.012;2023-02-28T07:39:51;-0.20;99.90
18581;DHT22;9420;50.876;7.012;2023-02-28T07:42:18;-0.10;99.90
18581;DHT22;9420;50.876;7.012;2023-02-28T07:44:46;0.00;99.90
18581;DHT22;9420;50.876;7.012;2023-02-28T07:47:13;0.00;99.90
18581;DHT22;9420;50.876;7.012;2023-02-28T07:49:40;0.10;99.90
18581;DHT22;9420;50.876;7.012;2023-02-28T07:52:09;0.20;99.90
18581;DHT22;9420;50.876;7.012;2023-02-28T07:54:36;0.20;99.90
18581;DHT22;9420;50.876;7.012;2023-02-28T07:57:03;0.30;99.90
18581;DHT22;9420;50.876;7.012;2023-02-28T07:59:30;0.30;99.90
18581;DHT22;9420;50.876;7.012;2023-02-28T08:01:57;0.40;99.90
18581;DHT22;9420;50.876;7.012;2023-02-28T08:04:25;0.50;99.90
18581;DHT22;9420;50.876;7.012;2023-02-28T08:06:52;0.50;99.90
18581;DHT22;9420;50.876;7.012;2023-02-28T08:09:20;0.60;99.90
18581;DHT22;9420;50.876;7.012;2023-02-28T08:11:47;0.60;99.90
18581;DHT22;9420;50.876;7.012;2023-02-28T08:14:14;0.70;99.90
18581;DHT22;9420;50.876;7.012;2023-02-28T08:16:42;0.80;99.90
18581;DHT22;9420;50.876;7.012;2023-02-28T08:19:09;0.80;99.90
18581;DHT22;9420;50.876;7.012;2023-02-28T08:21:36;0.90;99.90
18581;DHT22;9420;50.876;7.012;2023-02-28T08:24:03;0.90;98.80
18581;DHT22;9420;50.876;7.012;2023-02-28T08:26:32;1.00;99.00
18581;DHT22;9420;50.876;7.012;2023-02-28T08:29:00;1.00;99.60
18581;DHT22;9420;50.876;7.012;2023-02-28T08:31:26;1.10;99.30
18581;DHT22;9420;50.876;7.012;2023-02-28T08:33:53;1.10;97.50
18581;DHT22;9420;50.876;7.012;2023-02-28T08:36:24;1.20;97.80
18581;DHT22;9420;50.876;7.012;2023-02-28T08:38:54;1.30;98.20
18581;DHT22;9420;50.876;7.012;2023-02-28T08:41:21;1.40;98.40
18581;DHT22;9420;50.876;7.012;2023-02-28T08:43:49;1.40;95.00
18581;DHT22;9420;50.876;7.012;2023-02-28T08:46:16;1.40;95.20
18581;DHT22;9420;50.876;7.012;2023-02-28T08:48:44;1.50;95.00
18581;DHT22;9420;50.876;7.012;2023-02-28T08:51:13;1.50;93.30
18581;DHT22;9420;50.876;7.012;2023-02-28T08:53:44;1.60;91.70
18581;DHT22;9420;50.876;7.012;2023-02-28T08:56:13;1.70;92.90
18581;DHT22;9420;50.876;7.012;2023-02-28T08:58:44;1.80;91.30
18581;DHT22;9420;50.876;7.012;2023-02-28T09:01:14;1.90;90.40
18581;DHT22;9420;50.876;7.012;2023-02-28T09:03:43;1.90;84.30
18581;DHT22;9420;50.876;7.012;2023-02-28T09:06:12;1.90;81.90
18581;DHT22;9420;50.876;7.012;2023-02-28T09:08:40;1.90;81.10
18581;DHT22;9420;50.876;7.012;2023-02-28T09:11:09;2.00;81.30
18581;DHT22;9420;50.876;7.012;2023-02-28T09:13:37;2.10;78.70
18581;DHT22;9420;50.876;7.012;2023-02-28T09:16:07;2.20;80.40
18581;DHT22;9420;50.876;7.012;2023-02-28T09:18:39;2.30;81.50
18581;DHT22;9420;50.876;7.012;2023-02-28T09:21:08;2.30;77.70
18581;DHT22;9420;50.876;7.012;2023-02-28T09:23:39;2.30;72.80
18581;DHT22;9420;50.876;7.012;2023-02-28T09:26:07;2.20;77.00
18581;DHT22;9420;50.876;7.012;2023-02-28T09:28:39;2.30;73.30
18581;DHT22;9420;50.876;7.012;2023-02-28T09:31:10;2.40;76.70
18581;DHT22;9420;50.876;7.012;2023-02-28T09:33:42;2.40;75.50
18581;DHT22;9420;50.876;7.012;2023-02-28T09:36:09;2.40;76.40
18581;DHT22;9420;50.876;7.012;2023-02-28T09:38:36;2.50;73.30
18581;DHT22;9420;50.876;7.012;2023-02-28T09:41:13;2.50;77.20
18581;DHT22;9420;50.876;7.012;2023-02-28T09:43:45;2.60;73.80
18581;DHT22;9420;50.876;7.012;2023-02-28T09:46:29;2.70;72.90
18581;DHT22;9420;50.876;7.012;2023-02-28T09:49:05;2.70;68.30
18581;DHT22;9420;50.876;7.012;2023-02-28T09:51:46;2.70;74.70
18581;DHT22;9420;50.876;7.012;2023-02-28T09:54:20;2.80;73.30
18581;DHT22;9420;50.876;7.012;2023-02-28T09:56:51;2.80;73.50
18581;DHT22;9420;50.876;7.012;2023-02-28T09:59:48;2.80;73.60
18581;DHT22;9420;50.876;7.012;2023-02-28T10:02:41;2.80;71.20
18581;DHT22;9420;50.876;7.012;2023-02-28T10:05:19;2.90;69.10
18581;DHT22;9420;50.876;7.012;2023-02-28T10:07:56;3.00;68.00
18581;DHT22;9420;50.876;7.012;2023-02-28T10:10:36;3.00;74.30
18581;DHT22;9420;50.876;7.012;2023-02-28T10:13:23;3.10;69.90
18581;DHT22;9420;50.876;7.012;2023-02-28T10:16:03;3.20;71.00
18581;DHT22;9420;50.876;7.012;2023-02-28T10:18:41;3.20;63.40
18581;DHT22;9420;50.876;7.012;2023-02-28T10:21:18;3.40;67.40
18581;DHT22;9420;50.876;7.012;2023-02-28T10:24:03;3.30;61.90
18581;DHT22;9420;50.876;7.012;2023-02-28T10:26:37;3.30;64.30
18581;DHT22;9420;50.876;7.012;2023-02-28T10:29:07;3.40;62.50
18581;DHT22;9420;50.876;7.012;2023-02-28T10:31:35;3.40;67.40
18581;DHT22;9420;50.876;7.012;2023-02-28T10:34:02;3.50;64.40
18581;DHT22;9420;50.876;7.012;2023-02-28T10:36:32;3.60;66.90
18581;DHT22;9420;50.876;7.012;2023-02-28T10:39:37;3.70;61.40
18581;DHT22;9420;50.876;7.012;2023-02-28T10:42:22;3.60;60.20
18581;DHT22;9420;50.876;7.012;2023-02-28T10:45:11;3.80;66.40
18581;DHT22;9420;50.876;7.012;2023-02-28T10:47:51;3.90;64.30
18581;DHT22;9420;50.876;7.012;2023-02-28T10:50:37;4.00;65.10
18581;DHT22;9420;50.876;7.012;2023-02-28T10:53:27;4.20;62.20
18581;DHT22;9420;50.876;7.012;2023-02-28T10:55:59;4.30;66.50
18581;DHT22;9420;50.876;7.012;2023-02-28T10:58:29;4.30;58.70
18581;DHT22;9420;50.876;7.012;2023-02-28T11:00:59;4.50;53.00
18581;DHT22;9420;50.876;7.012;2023-02-28T11:03:31;4.80;51.80
18581;DHT22;9420;50.876;7.012;2023-02-28T11:06:04;4.60;48.00
18581;DHT22;9420;50.876;7.012;2023-02-28T11:08:47;4.50;53.50
18581;DHT22;9420;50.876;7.012;2023-02-28T11:11:17;4.60;50.30
18581;DHT22;9420;50.876;7.012;2023-02-28T11:13:47;4.70;44.50
18581;DHT22;9420;50.876;7.012;2023-02-28T11:16:18;4.70;42.20
18581;DHT22;9420;50.876;7.012;2023-02-28T11:18:48;4.80;40.50
18581;DHT22;9420;50.876;7.012;2023-02-28T11:21:22;4.80;34.20
18581;DHT22;9420;50.876;7.012;2023-02-28T11:23:59;5.20;28.10
18581;DHT22;9420;50.876;7.012;2023-02-28T11:26:40;5.40;31.70
18581;DHT22;9420;50.876;7.012;2023-02-28T11:29:16;5.60;27.90
18581;DHT22;9420;50.876;7.012;2023-02-28T11:32:12;5.90;33.10
18581;DHT22;9420;50.876;7.012;2023-02-28T11:34:43;6.30;23.60
18581;DHT22;9420;50.876;7.012;2023-02-28T11:37:13;6.50;19.40
18581;DHT22;9420;50.876;7.012;2023-02-28T11:39:44;7.30;16.00
18581;DHT22;9420;50.876;7.012;2023-02-28T11:42:27;8.10;8.10
18581;DHT22;9420;50.876;7.012;2023-02-28T11:45:15;8.80;1.00
18581;DHT22;9420;50.876;7.012;2023-02-28T11:47:55;9.10;1.00
18581;DHT22;9420;50.876;7.012;2023-02-28T11:50:49;9.50;1.00
18581;DHT22;9420;50.876;7.012;2023-02-28T11:53:43;9.90;1.00
18581;DHT22;9420;50.876;7.012;2023-02-28T11:56:25;10.00;1.00
18581;DHT22;9420;50.876;7.012;2023-02-28T11:59:14;10.30;1.00
18581;DHT22;9420;50.876;7.012;2023-02-28T12:02:20;10.20;1.00
18581;DHT22;9420;50.876;7.012;2023-02-28T12:04:58;10.20;1.00
18581;DHT22;9420;50.876;7.012;2023-02-28T12:07:47;10.40;1.00
18581;DHT22;9420;50.876;7.012;2023-02-28T12:10:23;9.60;1.00
18581;DHT22;9420;50.876;7.012;2023-02-28T12:13:03;10.00;1.00
18581;DHT22;9420;50.876;7.012;2023-02-28T12:16:20;10.50;1.00
18581;DHT22;9420;50.876;7.012;2023-02-28T12:19:19;11.10;1.00
18581;DHT22;9420;50.876;7.012;2023-02-28T12:22:16;12.00;1.00
18581;DHT22;9420;50.876;7.012;2023-02-28T12:25:22;12.30;1.00
18581;DHT22;9420;50.876;7.012;2023-02-28T12:28:08;12.80;1.00
18581;DHT22;9420;50.876;7.012;2023-02-28T12:30:43;12.90;1.00
18581;DHT22;9420;50.876;7.012;2023-02-28T12:33:20;13.00;1.00
18581;DHT22;9420;50.876;7.012;2023-02-28T12:35:59;13.30;1.00
18581;DHT22;9420;50.876;7.012;2023-02-28T12:38:36;13.00;1.00
18581;DHT22;9420;50.876;7.012;2023-02-28T12:41:12;13.10;1.00
18581;DHT22;9420;50.876;7.012;2023-02-28T12:43:47;13.60;1.00
18581;DHT22;9420;50.876;7.012;2023-02-28T12:46:25;13.60;1.00
18581;DHT22;9420;50.876;7.012;2023-02-28T12:48:59;13.50;1.00
18581;DHT22;9420;50.876;7.012;2023-02-28T12:51:31;13.80;1.00
18581;DHT22;9420;50.876;7.012;2023-02-28T12:54:07;13.90;1.00
18581;DHT22;9420;50.876;7.012;2023-02-28T12:56:45;14.10;1.00
18581;DHT22;9420;50.876;7.012;2023-02-28T12:59:26;14.10;1.00
18581;DHT22;9420;50.876;7.012;2023-02-28T13:02:13;14.10;1.00
18581;DHT22;9420;50.876;7.012;2023-02-28T13:05:33;14.00;1.00
18581;DHT22;9420;50.876;7.012;2023-02-28T13:11:29;14.60;1.00
18581;DHT22;9420;50.876;7.012;2023-02-28T13:13:59;14.80;1.00
18581;DHT22;9420;50.876;7.012;2023-02-28T13:16:55;15.10;1.00
18581;DHT22;9420;50.876;7.012;2023-02-28T13:19:28;14.80;1.00
18581;DHT22;9420;50.876;7.012;2023-02-28T13:21:57;14.70;1.00
18581;DHT22;9420;50.876;7.012;2023-02-28T13:24:48;15.10;1.00
18581;DHT22;9420;50.876;7.012;2023-02-28T13:27:35;15.00;1.00
18581;DHT22;9420;50.876;7.012;2023-02-28T13:33:31;15.10;1.00
18581;DHT22;9420;50.876;7.012;2023-02-28T13:36:07;15.30;1.00
18581;DHT22;9420;50.876;7.012;2023-02-28T13:38:40;15.80;1.00
18581;DHT22;9420;50.876;7.012;2023-02-28T13:41:43;15.80;1.00
18581;DHT22;9420;50.876;7.012;2023-02-28T13:44:13;16.00;1.00
18581;DHT22;9420;50.876;7.012;2023-02-28T13:47:23;16.00;1.00
18581;DHT22;9420;50.876;7.012;2023-02-28T13:50:16;15.90;1.00
18581;DHT22;9420;50.876;7.012;2023-02-28T13:53:07;15.80;1.00
18581;DHT22;9420;50.876;7.012;2023-02-28T13:56:04;15.70;1.00
18581;DHT22;9420;50.876;7.012;2023-02-28T13:58:51;15.80;1.00
18581;DHT22;9420;50.876;7.012;2023-02-28T14:01:33;15.80;1.00
18581;DHT22;9420;50.876;7.012;2023-02-28T14:04:41;16.20;1.00
18581;DHT22;9420;50.876;7.012;2023-02-28T14:07:21;16.30;1.00
18581;DHT22;9420;50.876;7.012;2023-02-28T14:09:56;16.30;1.00
18581;DHT22;9420;50.876;7.012;2023-02-28T14:12:59;16.10;1.00
18581;DHT22;9420;50.876;7.012;2023-02-28T14:15:44;15.80;1.00
18581;DHT22;9420;50.876;7.012;2023-02-28T14:18:27;16.20;1.00
18581;DHT22;9420;50.876;7.012;2023-02-28T14:21:11;16.30;1.00
18581;DHT22;9420;50.876;7.012;2023-02-28T14:24:00;16.50;1.00
18581;DHT22;9420;50.876;7.012;2023-02-28T14:27:11;16.50;1.00
18581;DHT22;9420;50.876;7.012;2023-02-28T14:30:03;16.50;1.00
18581;DHT22;9420;50.876;7.012;2023-02-28T14:32:47;16.20;1.00
18581;DHT22;9420;50.876;7.012;2023-02-28T14:35:35;15.80;1.00
18581;DHT22;9420;50.876;7.012;2023-02-28T14:38:16;16.20;1.00
18581;DHT22;9420;50.876;7.012;2023-02-28T14:40:49;16.40;1.00
18581;DHT22;9420;50.876;7.012;2023-02-28T14:43:21;16.30;1.00
18581;DHT22;9420;50.876;7.012;2023-02-28T14:45:50;16.00;1.00
18581;DHT22;9420;50.876;7.012;2023-02-28T14:48:21;16.30;1.00
18581;DHT22;9420;50.876;7.012;2023-02-28T14:50:52;16.30;1.00
18581;DHT22;9420;50.876;7.012;2023-02-28T14:53:25;16.30;1.00
18581;DHT22;9420;50.876;7.012;2023-02-28T14:55:57;15.80;1.00
18581;DHT22;9420;50.876;7.012;2023-02-28T14:58:27;15.50;1.00
18581;DHT22;9420;50.876;7.012;2023-02-28T15:00:58;15.40;1.00
18581;DHT22;9420;50.876;7.012;2023-02-28T15:03:31;15.50;1.00
18581;DHT22;9420;50.876;7.012;2023-02-28T15:06:01;15.70;1.00
18581;DHT22;9420;50.876;7.012;2023-02-28T15:08:31;15.50;1.00
18581;DHT22;9420;50.876;7.012;2023-02-28T15:11:04;16.10;1.00
18581;DHT22;9420;50.876;7.012;2023-02-28T15:13:38;16.20;1.00
18581;DHT22;9420;50.876;7.012;2023-02-28T15:16:10;16.30;1.00
18581;DHT22;9420;50.876;7.012;2023-02-28T15:18:46;16.40;1.00
18581;DHT22;9420;50.876;7.012;2023-02-28T15:21:17;16.00;1.00
18581;DHT22;9420;50.876;7.012;2023-02-28T15:23:49;15.50;1.00
18581;DHT22;9420;50.876;7.012;2023-02-28T15:26:27;15.30;1.00
18581;DHT22;9420;50.876;7.012;2023-02-28T15:28:59;15.40;1.00
18581;DHT22;9420;50.876;7.012;2023-02-28T15:31:33;15.40;1.00
18581;DHT22;9420;50.876;7.012;2023-02-28T15:34:04;15.30;1.00
18581;DHT22;9420;50.876;7.012;2023-02-28T15:36:34;15.10;1.00
18581;DHT22;9420;50.876;7.012;2023-02-28T15:39:03;15.30;1.00
18581;DHT22;9420;50.876;7.012;2023-02-28T15:41:46;15.00;1.00
18581;DHT22;9420;50.876;7.012;2023-02-28T15:44:16;14.60;1.00
18581;DHT22;9420;50.876;7.012;2023-02-28T15:46:58;14.70;1.00
18581;DHT22;9420;50.876;7.012;2023-02-28T15:49:28;14.50;1.00
18581;DHT22;9420;50.876;7.012;2023-02-28T15:52:01;13.10;1.00
18581;DHT22;9420;50.876;7.012;2023-02-28T15:54:29;11.50;1.00
18581;DHT22;9420;50.876;7.012;2023-02-28T15:57:05;10.60;1.00
18581;DHT22;9420;50.876;7.012;2023-02-28T15:59:35;9.90;1.00
18581;DHT22;9420;50.876;7.012;2023-02-28T16:02:13;9.20;1.00
18581;DHT22;9420;50.876;7.012;2023-02-28T16:04:57;8.90;1.00
18581;DHT22;9420;50.876;7.012;2023-02-28T16:07:44;8.50;1.00
18581;DHT22;9420;50.876;7.012;2023-02-28T16:10:14;8.40;1.00
18581;DHT22;9420;50.876;7.012;2023-02-28T16:12:42;8.30;1.00
18581;DHT22;9420;50.876;7.012;2023-02-28T16:15:19;8.00;1.00
18581;DHT22;9420;50.876;7.012;2023-02-28T16:17:48;7.80;1.00
18581;DHT22;9420;50.876;7.012;2023-02-28T16:20:19;7.70;1.00
18581;DHT22;9420;50.876;7.012;2023-02-28T16:22:48;7.50;1.00
18581;DHT22;9420;50.876;7.012;2023-02-28T16:25:17;7.50;1.00
18581;DHT22;9420;50.876;7.012;2023-02-28T16:27:50;7.40;1.00
18581;DHT22;9420;50.876;7.012;2023-02-28T16:30:22;7.40;1.00
18581;DHT22;9420;50.876;7.012;2023-02-28T16:32:51;7.20;1.00
18581;DHT22;9420;50.876;7.012;2023-02-28T16:35:21;7.00;1.00
18581;DHT22;9420;50.876;7.012;2023-02-28T16:37:50;6.90;1.00
18581;DHT22;9420;50.876;7.012;2023-02-28T16:40:20;6.80;1.00
18581;DHT22;9420;50.876;7.012;2023-02-28T16:42:53;6.70;1.00
18581;DHT22;9420;50.876;7.012;2023-02-28T16:45:26;6.60;1.00
18581;DHT22;9420;50.876;7.012;2023-02-28T16:47:55;6.50;1.00
18581;DHT22;9420;50.876;7.012;2023-02-28T16:50:24;6.30;1.00
18581;DHT22;9420;50.876;7.012;2023-02-28T16:52:53;6.30;3.00